createdAt,value
2022-08-09T00:01:42.821Z,18.00
2022-08-09T00:04:35.112Z,18.00
2022-08-09T00:07:02.830Z,17.90
2022-08-09T00:09:30.174Z,17.90
2022-08-09T00:12:03.643Z,17.90
2022-08-09T00:14:37.967Z,17.90
2022-08-09T00:17:05.665Z,17.90
2022-08-09T00:19:34.036Z,17.80
2022-08-09T00:22:03.702Z,17.80
2022-08-09T00:24:32.115Z,17.80
2022-08-09T00:27:00.151Z,17.70
2022-08-09T00:30:10.119Z,17.60
2022-08-09T00:32:25.775Z,17.60
2022-08-09T00:34:54.790Z,17.60
2022-08-09T00:37:22.172Z,17.50
2022-08-09T00:40:09.282Z,17.50
2022-08-09T00:44:24.696Z,17.50
2022-08-09T00:45:27.943Z,17.50
2022-08-09T00:47:55.690Z,17.40
2022-08-09T00:50:23.591Z,17.40
2022-08-09T00:52:51.081Z,17.40
2022-08-09T00:56:03.785Z,17.40
2022-08-09T00:58:05.928Z,17.30
2022-08-09T01:00:38.815Z,17.30
2022-08-09T01:03:32.750Z,17.30
2022-08-09T01:06:53.579Z,17.30
2022-08-09T01:09:36.993Z,17.30
2022-08-09T01:12:17.865Z,17.20
2022-08-09T01:14:56.068Z,17.20
2022-08-09T01:17:43.671Z,17.20
2022-08-09T01:20:37.081Z,17.10
2022-08-09T01:23:12.424Z,17.10
2022-08-09T01:26:06.081Z,17.00
2022-08-09T01:28:33.404Z,17.00
2022-08-09T01:31:01.054Z,17.00
2022-08-09T01:33:29.817Z,16.90
2022-08-09T01:36:11.654Z,16.90
2022-08-09T01:38:44.280Z,16.90
2022-08-09T01:41:19.549Z,16.90
2022-08-09T01:44:03.828Z,16.90
2022-08-09T01:46:36.617Z,16.90
2022-08-09T01:49:17.601Z,16.90
2022-08-09T01:51:56.946Z,16.90
2022-08-09T01:54:32.824Z,16.80
2022-08-09T01:57:04.212Z,16.80
2022-08-09T01:59:32.245Z,16.80
2022-08-09T02:02:01.245Z,16.80
2022-08-09T02:04:29.922Z,16.70
2022-08-09T02:08:35.882Z,16.70
2022-08-09T02:10:29.702Z,16.70
2022-08-09T02:12:57.834Z,16.70
2022-08-09T02:15:26.993Z,16.70
2022-08-09T02:18:14.129Z,16.70
2022-08-09T02:20:43.950Z,16.70
2022-08-09T02:23:24.294Z,16.60
2022-08-09T02:25:52.672Z,16.60
2022-08-09T02:28:34.899Z,16.60
2022-08-09T02:31:05.912Z,16.50
2022-08-09T02:34:06.980Z,16.50
2022-08-09T02:36:39.632Z,16.50
2022-08-09T02:39:14.633Z,16.50
2022-08-09T02:41:50.008Z,16.40
2022-08-09T02:44:29.610Z,16.30
2022-08-09T02:46:57.784Z,16.30
2022-08-09T02:49:38.194Z,16.20
2022-08-09T02:52:05.845Z,16.20
2022-08-09T02:54:34.996Z,16.20
2022-08-09T02:57:13.870Z,16.20
2022-08-09T03:00:21.298Z,16.20
2022-08-09T03:02:46.467Z,16.10
2022-08-09T03:05:26.410Z,16.10
2022-08-09T03:07:55.335Z,16.10
2022-08-09T03:10:23.158Z,16.10
2022-08-09T03:12:52.044Z,16.10
2022-08-09T03:15:22.796Z,16.10
2022-08-09T03:17:53.875Z,16.10
2022-08-09T03:20:29.506Z,16.00
2022-08-09T03:22:58.435Z,16.00
2022-08-09T03:25:58.621Z,15.90
2022-08-09T03:28:29.813Z,15.80
2022-08-09T03:30:57.577Z,15.80
2022-08-09T03:33:53.606Z,15.80
2022-08-09T03:36:17.246Z,15.80
2022-08-09T03:38:44.911Z,15.80
2022-08-09T03:41:15.506Z,15.80
2022-08-09T03:44:03.078Z,15.80
2022-08-09T03:46:31.772Z,15.70
2022-08-09T03:49:04.292Z,15.70
2022-08-09T03:51:56.910Z,15.80
2022-08-09T03:54:29.579Z,15.80
2022-08-09T03:57:18.120Z,15.80
2022-08-09T03:59:54.478Z,15.80
2022-08-09T04:02:26.792Z,15.70
2022-08-09T04:04:59.142Z,15.60
2022-08-09T04:07:47.029Z,15.60
2022-08-09T04:10:20.398Z,15.60
2022-08-09T04:12:50.903Z,15.60
2022-08-09T04:15:38.996Z,15.60
2022-08-09T04:18:16.473Z,15.60
2022-08-09T04:20:49.577Z,15.60
2022-08-09T04:23:17.539Z,15.60
2022-08-09T04:25:51.741Z,15.60
2022-08-09T04:28:34.163Z,15.60
2022-08-09T04:31:09.269Z,15.60
2022-08-09T04:33:52.713Z,15.60
2022-08-09T04:36:23.402Z,15.50
2022-08-09T04:38:52.223Z,15.50
2022-08-09T04:41:19.653Z,15.40
2022-08-09T04:44:06.684Z,15.40
2022-08-09T04:46:57.636Z,15.40
2022-08-09T04:49:40.058Z,15.50
2022-08-09T04:52:12.301Z,15.40
2022-08-09T04:54:52.217Z,15.40
2022-08-09T04:57:24.047Z,15.40
2022-08-09T04:59:56.590Z,15.40
2022-08-09T05:02:24.981Z,15.50
2022-08-09T05:04:55.553Z,15.50
2022-08-09T05:07:24.697Z,15.50
2022-08-09T05:09:55.015Z,15.50
2022-08-09T05:12:23.064Z,15.50
2022-08-09T05:14:50.323Z,15.60
2022-08-09T05:18:39.707Z,15.70
2022-08-09T05:20:06.284Z,15.70
2022-08-09T05:23:50.582Z,15.80
2022-08-09T05:25:21.242Z,15.80
2022-08-09T05:27:48.763Z,15.90
2022-08-09T05:30:19.472Z,16.00
2022-08-09T05:32:50.886Z,16.00
2022-08-09T05:35:21.964Z,16.10
2022-08-09T05:37:50.699Z,16.20
2022-08-09T05:40:18.316Z,16.20
2022-08-09T05:42:46.206Z,16.30
2022-08-09T05:45:14.659Z,16.40
2022-08-09T05:47:52.559Z,16.50
2022-08-09T05:50:50.487Z,16.60
2022-08-09T05:53:32.496Z,16.80
2022-08-09T05:56:00.220Z,16.80
2022-08-09T05:58:28.845Z,17.00
2022-08-09T06:00:56.294Z,17.10
2022-08-09T06:03:34.741Z,17.30
2022-08-09T06:06:11.436Z,17.40
2022-08-09T06:08:39.140Z,17.50
2022-08-09T06:11:17.558Z,17.60
2022-08-09T06:13:45.777Z,17.70
2022-08-09T06:16:14.530Z,17.90
2022-08-09T06:18:43.468Z,18.00
2022-08-09T06:21:11.284Z,18.10
2022-08-09T06:23:57.715Z,18.30
2022-08-09T06:26:28.501Z,18.40
2022-08-09T06:28:59.261Z,18.70
2022-08-09T06:31:30.475Z,18.70
2022-08-09T06:33:58.927Z,18.80
2022-08-09T06:36:29.806Z,18.80
2022-08-09T06:38:57.796Z,18.80
2022-08-09T06:41:40.582Z,18.80
2022-08-09T06:44:18.187Z,18.80
2022-08-09T06:46:46.009Z,18.90
2022-08-09T06:49:16.110Z,18.80
2022-08-09T06:51:50.136Z,19.00
2022-08-09T06:54:20.345Z,19.00
2022-08-09T06:56:47.593Z,19.10
2022-08-09T07:00:52.108Z,19.20
2022-08-09T07:02:04.746Z,19.20
2022-08-09T07:04:32.571Z,19.10
2022-08-09T07:07:00.132Z,19.20
2022-08-09T07:09:54.931Z,19.20
2022-08-09T07:12:18.789Z,19.40
2022-08-09T07:14:51.159Z,19.60
2022-08-09T07:17:20.279Z,19.90
2022-08-09T07:19:55.137Z,20.20
2022-08-09T07:22:34.413Z,20.30
2022-08-09T07:25:05.066Z,20.30
2022-08-09T07:27:42.951Z,20.30
2022-08-09T07:30:20.297Z,20.40
2022-08-09T07:32:51.480Z,20.40
2022-08-09T07:35:19.150Z,20.40
2022-08-09T07:37:49.196Z,20.50
2022-08-09T07:40:18.681Z,20.50
2022-08-09T07:42:54.133Z,20.30
2022-08-09T07:45:39.193Z,20.20
2022-08-09T07:48:25.810Z,20.00
2022-08-09T07:51:10.190Z,19.90
2022-08-09T07:54:04.247Z,19.90
2022-08-09T07:56:34.082Z,19.90
2022-08-09T07:59:01.536Z,20.10
2022-08-09T08:01:33.125Z,20.10
2022-08-09T08:04:02.622Z,20.20
2022-08-09T08:06:31.922Z,20.20
2022-08-09T08:09:04.967Z,20.10
2022-08-09T08:12:10.886Z,20.30
2022-08-09T08:14:24.025Z,20.20
2022-08-09T08:17:07.570Z,20.10
2022-08-09T08:19:36.288Z,20.00
2022-08-09T08:22:04.780Z,20.10
2022-08-09T08:24:39.842Z,20.30
2022-08-09T08:27:17.088Z,20.40
2022-08-09T08:29:50.221Z,20.60
2022-08-09T08:32:28.736Z,20.60
2022-08-09T08:34:59.000Z,20.70
2022-08-09T08:37:41.429Z,20.70
2022-08-09T08:40:16.878Z,20.70
2022-08-09T08:42:47.293Z,20.80
2022-08-09T08:45:14.759Z,20.70
2022-08-09T08:47:42.805Z,20.60
2022-08-09T08:50:15.508Z,20.70
2022-08-09T08:52:58.498Z,20.80
2022-08-09T08:55:32.211Z,21.00
2022-08-09T08:57:59.462Z,21.00
2022-08-09T09:00:30.391Z,21.10
2022-08-09T09:03:11.768Z,21.20
2022-08-09T09:05:59.593Z,21.20
2022-08-09T09:08:30.849Z,21.20
2022-08-09T09:11:04.041Z,21.20
2022-08-09T09:13:47.432Z,21.30
2022-08-09T09:16:30.692Z,21.50
2022-08-09T09:22:15.886Z,21.70
2022-08-09T09:24:48.124Z,21.80
2022-08-09T09:28:03.035Z,21.90
2022-08-09T09:30:33.047Z,22.10
2022-08-09T09:33:15.707Z,22.10
2022-08-09T09:36:02.410Z,22.20
2022-08-09T09:38:47.407Z,22.20
2022-08-09T09:41:25.014Z,22.40
2022-08-09T09:44:12.148Z,22.30
2022-08-09T09:46:46.221Z,22.40
2022-08-09T09:49:56.478Z,22.60
2022-08-09T09:52:33.501Z,22.80
2022-08-09T09:55:28.188Z,22.90
2022-08-09T09:58:18.706Z,23.00
2022-08-09T10:00:55.456Z,23.00
2022-08-09T10:03:57.169Z,23.10
2022-08-09T10:06:28.259Z,23.20
2022-08-09T10:09:12.042Z,23.40
2022-08-09T10:12:12.837Z,23.40
2022-08-09T10:14:49.873Z,23.60
2022-08-09T10:17:39.637Z,23.50
2022-08-09T10:20:35.640Z,23.60
2022-08-09T10:23:20.274Z,23.50
2022-08-09T10:26:06.837Z,23.50
2022-08-09T10:28:38.208Z,23.60
2022-08-09T10:34:08.941Z,23.90
2022-08-09T10:36:42.269Z,24.00
2022-08-09T10:39:15.972Z,24.10
2022-08-09T10:41:47.691Z,24.30
2022-08-09T10:44:19.065Z,24.60
2022-08-09T10:47:28.123Z,24.80
2022-08-09T10:50:09.859Z,24.90
2022-08-09T10:52:53.869Z,24.90
2022-08-09T10:55:28.483Z,25.00
2022-08-09T10:58:04.232Z,24.90
2022-08-09T11:00:41.836Z,24.90
2022-08-09T11:03:46.770Z,25.00
2022-08-09T11:06:20.977Z,25.00
2022-08-09T11:08:53.032Z,25.10
2022-08-09T11:11:21.778Z,25.30
2022-08-09T11:14:28.559Z,25.50
2022-08-09T11:16:57.242Z,25.50
2022-08-09T11:20:12.108Z,25.40
2022-08-09T11:22:56.708Z,25.50
2022-08-09T11:25:44.922Z,25.30
2022-08-09T11:28:34.027Z,25.50
2022-08-09T11:31:50.106Z,25.60
2022-08-09T11:34:23.506Z,25.70
2022-08-09T11:36:50.655Z,25.80
2022-08-09T11:39:18.536Z,25.90
2022-08-09T11:41:48.860Z,25.90
2022-08-09T11:44:16.063Z,25.90
2022-08-09T11:46:57.483Z,25.90
2022-08-09T11:50:53.984Z,25.90
2022-08-09T11:53:20.863Z,25.90
2022-08-09T11:55:52.495Z,25.80
2022-08-09T11:58:32.448Z,25.80
2022-08-09T12:01:08.838Z,25.80
2022-08-09T12:03:55.473Z,26.10
2022-08-09T12:06:32.589Z,26.20
2022-08-09T12:09:19.120Z,26.40
2022-08-09T12:12:03.520Z,26.50
2022-08-09T12:14:36.898Z,26.50
2022-08-09T12:17:33.876Z,26.50
2022-08-09T12:20:02.694Z,26.50
2022-08-09T12:22:31.811Z,26.60
2022-08-09T12:25:37.989Z,26.60
2022-08-09T12:28:58.770Z,26.50
2022-08-09T12:31:11.100Z,26.50
2022-08-09T12:34:00.963Z,26.50
2022-08-09T12:36:32.351Z,26.40
2022-08-09T12:39:02.244Z,26.50
2022-08-09T12:41:39.232Z,26.60
2022-08-09T12:44:09.993Z,26.60
2022-08-09T12:46:43.361Z,26.80
2022-08-09T12:49:16.779Z,26.70
2022-08-09T12:52:01.282Z,26.80
2022-08-09T12:56:11.450Z,26.90
2022-08-09T12:57:46.600Z,27.00
2022-08-09T13:00:25.093Z,27.00
2022-08-09T13:02:58.987Z,26.90
2022-08-09T13:05:50.822Z,27.00
2022-08-09T13:08:16.213Z,26.90
2022-08-09T13:11:01.776Z,26.90
2022-08-09T13:14:36.898Z,27.00
2022-08-09T13:16:50.642Z,26.90
2022-08-09T13:20:09.012Z,27.00
2022-08-09T13:22:36.029Z,27.10
2022-08-09T13:25:04.894Z,27.20
2022-08-09T13:27:39.847Z,27.20
2022-08-09T13:30:51.315Z,27.10
2022-08-09T13:33:12.023Z,27.10
2022-08-09T13:36:38.548Z,26.90
2022-08-09T13:38:55.001Z,26.90
2022-08-09T13:41:57.506Z,27.00
2022-08-09T13:44:13.732Z,27.00
2022-08-09T13:47:17.862Z,27.10
2022-08-09T13:49:37.573Z,27.10
2022-08-09T13:52:09.070Z,27.20
2022-08-09T13:54:42.911Z,27.30
2022-08-09T13:57:36.628Z,27.30
2022-08-09T14:00:12.772Z,27.20
2022-08-09T14:02:42.676Z,27.20
2022-08-09T14:06:00.333Z,27.30
2022-08-09T14:08:17.563Z,27.40
2022-08-09T14:10:52.628Z,27.50
2022-08-09T14:14:15.946Z,27.40
2022-08-09T14:16:13.894Z,27.50
2022-08-09T14:18:45.505Z,27.50
2022-08-09T14:21:20.667Z,27.50
2022-08-09T14:23:54.787Z,27.50
2022-08-09T14:26:32.720Z,27.70
2022-08-09T14:29:25.592Z,27.80
2022-08-09T14:32:04.594Z,27.70
2022-08-09T14:34:41.157Z,27.70
2022-08-09T14:37:08.898Z,27.90
2022-08-09T14:39:48.074Z,27.90
2022-08-09T14:42:39.374Z,27.90
2022-08-09T14:46:45.937Z,27.90
2022-08-09T14:47:58.775Z,28.00
2022-08-09T14:50:31.641Z,28.00
2022-08-09T14:53:11.243Z,28.00
2022-08-09T14:55:42.146Z,28.10
2022-08-09T14:58:10.763Z,28.10
2022-08-09T15:00:42.354Z,28.10
2022-08-09T15:03:16.666Z,28.20
2022-08-09T15:05:52.613Z,28.40
2022-08-09T15:08:26.247Z,28.30
2022-08-09T15:11:00.890Z,28.40
2022-08-09T15:13:47.878Z,28.50
2022-08-09T15:16:16.635Z,28.40
2022-08-09T15:18:43.918Z,28.40
2022-08-09T15:21:55.329Z,28.40
2022-08-09T15:24:12.445Z,28.50
2022-08-09T15:26:45.294Z,28.50
2022-08-09T15:30:48.767Z,28.40
2022-08-09T15:32:01.084Z,28.50
2022-08-09T15:34:33.971Z,28.70
2022-08-09T15:37:03.849Z,28.80
2022-08-09T15:39:34.873Z,28.80
2022-08-09T15:42:19.394Z,28.90
2022-08-09T15:44:49.621Z,28.90
2022-08-09T15:47:22.667Z,28.90
2022-08-09T15:50:03.593Z,28.80
2022-08-09T15:52:32.281Z,28.70
2022-08-09T15:55:01.084Z,28.80
2022-08-09T15:57:35.589Z,28.90
2022-08-09T16:00:24.493Z,28.90
2022-08-09T16:02:57.126Z,28.80
2022-08-09T16:05:47.476Z,28.70
2022-08-09T16:08:30.417Z,28.60
2022-08-09T16:11:02.103Z,28.60
2022-08-09T16:14:03.783Z,28.60
2022-08-09T16:16:20.174Z,28.50
2022-08-09T16:18:53.410Z,28.50
2022-08-09T16:21:25.460Z,28.40
2022-08-09T16:23:58.603Z,28.40
2022-08-09T16:26:34.524Z,28.20
2022-08-09T16:29:12.421Z,28.00
2022-08-09T16:32:19.979Z,27.90
2022-08-09T16:34:44.786Z,27.90
2022-08-09T16:37:50.652Z,28.60
2022-08-09T16:40:08.810Z,29.90
2022-08-09T16:42:36.692Z,30.90
2022-08-09T16:45:05.467Z,31.60
2022-08-09T16:48:40.589Z,32.10
2022-08-09T16:50:32.309Z,32.50
2022-08-09T16:53:01.955Z,32.70
2022-08-09T16:55:58.451Z,33.10
2022-08-09T16:58:18.729Z,33.30
2022-08-09T17:00:48.650Z,33.40
2022-08-09T17:03:20.868Z,33.30
2022-08-09T17:06:06.717Z,33.10
2022-08-09T17:08:56.885Z,32.50
2022-08-09T17:11:40.430Z,31.60
2022-08-09T17:14:25.447Z,30.00
2022-08-09T17:17:01.460Z,28.90
2022-08-09T17:19:47.185Z,28.20
2022-08-09T17:22:29.010Z,27.70
2022-08-09T17:25:03.263Z,27.20
2022-08-09T17:27:32.679Z,26.80
2022-08-09T17:29:59.979Z,26.50
2022-08-09T17:32:38.331Z,26.20
2022-08-09T17:35:11.479Z,26.00
2022-08-09T17:38:02.098Z,25.90
2022-08-09T17:40:33.253Z,25.70
2022-08-09T17:43:32.671Z,25.70
2022-08-09T17:46:03.581Z,25.60
2022-08-09T17:48:39.880Z,25.50
2022-08-09T17:51:19.569Z,25.30
2022-08-09T17:53:53.494Z,25.20
2022-08-09T17:56:28.736Z,25.00
2022-08-09T17:59:11.530Z,24.90
2022-08-09T18:01:57.899Z,24.80
2022-08-09T18:04:27.080Z,24.70
2022-08-09T18:06:56.085Z,24.60
2022-08-09T18:09:35.681Z,24.40
2022-08-09T18:12:17.304Z,24.20
2022-08-09T18:14:54.236Z,24.10
2022-08-09T18:17:27.623Z,24.00
2022-08-09T18:20:54.059Z,23.80
2022-08-09T18:23:04.684Z,23.60
2022-08-09T18:25:51.063Z,23.50
2022-08-09T18:30:41.057Z,23.40
2022-08-09T18:31:14.198Z,23.30
2022-08-09T18:33:45.201Z,23.20
2022-08-09T18:36:26.099Z,23.10
2022-08-09T18:39:02.062Z,23.10
2022-08-09T18:41:34.514Z,23.00
2022-08-09T18:44:04.055Z,22.90
2022-08-09T18:46:47.374Z,22.90
2022-08-09T18:49:23.634Z,22.80
2022-08-09T18:51:57.729Z,22.80
2022-08-09T18:54:28.603Z,22.70
2022-08-09T18:57:06.158Z,22.60
2022-08-09T18:59:37.322Z,22.60
2022-08-09T19:02:17.525Z,22.50
2022-08-09T19:04:47.535Z,22.40
2022-08-09T19:07:16.454Z,22.40
2022-08-09T19:10:16.998Z,22.40
2022-08-09T19:12:32.551Z,22.30
2022-08-09T19:15:06.273Z,22.20
2022-08-09T19:17:39.763Z,22.10
2022-08-09T19:20:21.042Z,22.00
2022-08-09T19:22:54.058Z,21.90
2022-08-09T19:25:42.815Z,21.80
2022-08-09T19:28:13.370Z,21.70
2022-08-09T19:30:44.422Z,21.60
2022-08-09T19:33:19.364Z,21.50
2022-08-09T19:35:56.899Z,21.40
2022-08-09T19:38:25.468Z,21.30
2022-08-09T19:40:53.076Z,21.30
2022-08-09T19:44:00.592Z,21.20
2022-08-09T19:46:14.930Z,21.20
2022-08-09T19:49:00.520Z,21.10
2022-08-09T19:51:30.687Z,21.10
2022-08-09T19:53:59.681Z,21.00
2022-08-09T19:56:29.008Z,21.00
2022-08-09T19:59:33.351Z,20.90
2022-08-09T20:01:53.194Z,20.90
2022-08-09T20:04:37.579Z,20.80
2022-08-09T20:07:16.035Z,20.80
2022-08-09T20:09:49.344Z,20.80
2022-08-09T20:12:33.188Z,20.70
2022-08-09T20:16:37.518Z,20.70
2022-08-09T20:17:54.448Z,20.60
2022-08-09T20:20:22.486Z,20.50
2022-08-09T20:22:56.095Z,20.50
2022-08-09T20:25:25.373Z,20.40
2022-08-09T20:27:52.776Z,20.40
2022-08-09T20:30:23.697Z,20.40
2022-08-09T20:32:52.334Z,20.40
2022-08-09T20:35:21.241Z,20.30
2022-08-09T20:38:23.715Z,20.30
2022-08-09T20:40:36.597Z,20.20
2022-08-09T20:43:17.969Z,20.20
2022-08-09T20:45:59.168Z,20.10
2022-08-09T21:00:19.519Z,20.00
2022-08-09T21:02:59.643Z,19.90
2022-08-09T21:05:57.285Z,19.80
2022-08-09T21:08:14.715Z,19.80
2022-08-09T21:10:44.143Z,19.70
2022-08-09T21:13:21.367Z,19.70
2022-08-09T21:15:51.956Z,19.70
2022-08-09T21:18:24.370Z,19.70
2022-08-09T21:20:54.558Z,19.70
2022-08-09T21:23:36.127Z,19.60
2022-08-09T21:26:11.177Z,19.60
2022-08-09T21:28:38.387Z,19.50
2022-08-09T21:31:17.637Z,19.50
2022-08-09T21:33:52.495Z,19.50
2022-08-09T21:36:22.969Z,19.50
2022-08-09T21:38:57.943Z,19.40
2022-08-09T21:42:04.872Z,19.40
2022-08-09T21:44:34.780Z,19.40
2022-08-09T21:47:07.621Z,19.40
2022-08-09T21:49:42.653Z,19.30
2022-08-09T21:52:18.104Z,19.30
2022-08-09T21:54:49.556Z,19.30
2022-08-09T21:57:25.484Z,19.30
2022-08-09T22:00:12.809Z,19.20
2022-08-09T22:02:40.205Z,19.20
2022-08-09T22:05:22.473Z,19.20
2022-08-09T22:07:54.020Z,19.10
2022-08-09T22:10:23.294Z,19.10
2022-08-09T22:12:52.320Z,19.00
2022-08-09T22:15:20.745Z,19.00
2022-08-09T22:18:00.637Z,19.00
2022-08-09T22:20:31.328Z,18.90
2022-08-09T22:22:58.729Z,18.90
2022-08-09T22:26:07.585Z,18.80
2022-08-09T22:28:13.637Z,18.80
2022-08-09T22:30:56.652Z,18.80
2022-08-09T22:33:48.609Z,18.80
2022-08-09T22:36:19.431Z,18.80
2022-08-09T22:38:47.055Z,18.70
2022-08-09T22:41:14.210Z,18.70
2022-08-09T22:44:03.430Z,18.70
2022-08-09T22:48:12.975Z,18.60
2022-08-09T22:49:15.950Z,18.60
2022-08-09T22:51:49.991Z,18.60
2022-08-09T22:54:27.285Z,18.50
2022-08-09T22:56:57.379Z,18.40
2022-08-09T22:59:56.405Z,18.40
2022-08-09T23:02:20.111Z,18.40
2022-08-09T23:04:54.296Z,18.30
2022-08-09T23:08:23.128Z,18.30
2022-08-09T23:10:30.203Z,18.30
2022-08-09T23:12:58.163Z,18.30
2022-08-09T23:15:25.799Z,18.20
2022-08-09T23:17:52.909Z,18.20
2022-08-09T23:20:20.046Z,18.20
2022-08-09T23:22:47.096Z,18.10
2022-08-09T23:25:14.353Z,18.10
2022-08-09T23:27:57.334Z,18.10
2022-08-09T23:30:29.300Z,18.10
2022-08-09T23:32:59.600Z,18.00
2022-08-09T23:35:26.875Z,18.00
2022-08-09T23:37:54.028Z,18.10
2022-08-09T23:40:22.311Z,18.00
2022-08-09T23:42:49.449Z,18.00
2022-08-09T23:45:37.506Z,18.00
2022-08-09T23:48:08.574Z,17.90
2022-08-09T23:50:36.384Z,17.80
2022-08-09T23:53:03.575Z,17.90
2022-08-09T23:55:30.766Z,17.80
2022-08-09T23:58:09.454Z,17.80
